sensor_id;sensor_type;location;lat;lon;timestamp;temperature;humidity
37240;DHT22;23130;48.760;9.178;2023-04-24T00:00:01;9.70;99.90
37240;DHT22;23130;48.760;9.178;2023-04-24T00:02:30;9.80;99.90
37240;DHT22;23130;48.760;9.178;2023-04-24T00:04:57;9.80;99.90
37240;DHT22;23130;48.760;9.178;2023-04-24T00:07:22;9.80;99.90
37240;DHT22;23130;48.760;9.178;2023-04-24T00:09:48;9.90;99.90
37240;DHT22;23130;48.760;9.178;2023-04-24T00:12:13;9.80;99.90
37240;DHT22;23130;48.760;9.178;2023-04-24T00:14:39;9.80;99.90
37240;DHT22;23130;48.760;9.178;2023-04-24T00:17:04;9.80;99.90
37240;DHT22;23130;48.760;9.178;2023-04-24T00:19:30;9.80;99.90
37240;DHT22;23130;48.760;9.178;2023-04-24T00:21:56;9.80;99.90
37240;DHT22;23130;48.760;9.178;2023-04-24T00:24:21;9.80;99.90
37240;DHT22;23130;48.760;9.178;2023-04-24T00:26:47;9.80;99.90
37240;DHT22;23130;48.760;9.178;2023-04-24T00:29:12;9.80;99.90
37240;DHT22;23130;48.760;9.178;2023-04-24T00:31:39;9.90;99.90
37240;DHT22;23130;48.760;9.178;2023-04-24T00:34:05;9.90;99.90
37240;DHT22;23130;48.760;9.178;2023-04-24T00:36:31;10.00;99.90
37240;DHT22;23130;48.760;9.178;2023-04-24T00:38:58;10.00;99.90
37240;DHT22;23130;48.760;9.178;2023-04-24T00:41:24;10.00;99.90
37240;DHT22;23130;48.760;9.178;2023-04-24T00:43:53;10.00;99.90
37240;DHT22;23130;48.760;9.178;2023-04-24T00:46:19;10.10;99.90
37240;DHT22;23130;48.760;9.178;2023-04-24T00:48:46;10.10;99.90
37240;DHT22;23130;48.760;9.178;2023-04-24T00:51:12;10.10;99.90
37240;DHT22;23130;48.760;9.178;2023-04-24T00:53:37;10.10;99.90
37240;DHT22;23130;48.760;9.178;2023-04-24T00:56:04;10.10;99.90
37240;DHT22;23130;48.760;9.178;2023-04-24T00:58:30;10.10;99.90
37240;DHT22;23130;48.760;9.178;2023-04-24T01:00:56;10.20;99.90
37240;DHT22;23130;48.760;9.178;2023-04-24T01:03:28;10.20;99.90
37240;DHT22;23130;48.760;9.178;2023-04-24T01:05:55;10.20;99.90
37240;DHT22;23130;48.760;9.178;2023-04-24T01:08:24;10.30;99.90
37240;DHT22;23130;48.760;9.178;2023-04-24T01:10:52;10.20;99.90
37240;DHT22;23130;48.760;9.178;2023-04-24T01:13:19;10.20;99.90
37240;DHT22;23130;48.760;9.178;2023-04-24T01:15:45;10.20;99.90
37240;DHT22;23130;48.760;9.178;2023-04-24T01:18:11;10.20;99.90
37240;DHT22;23130;48.760;9.178;2023-04-24T01:20:40;10.20;99.90
37240;DHT22;23130;48.760;9.178;2023-04-24T01:23:06;10.30;99.90
37240;DHT22;23130;48.760;9.178;2023-04-24T01:25:32;10.20;99.90
37240;DHT22;23130;48.760;9.178;2023-04-24T01:27:58;10.30;99.90
37240;DHT22;23130;48.760;9.178;2023-04-24T01:30:25;10.30;99.90
37240;DHT22;23130;48.760;9.178;2023-04-24T01:32:51;10.20;99.90
37240;DHT22;23130;48.760;9.178;2023-04-24T01:35:17;10.30;99.90
37240;DHT22;23130;48.760;9.178;2023-04-24T01:37:42;10.20;99.90
37240;DHT22;23130;48.760;9.178;2023-04-24T01:40:09;10.20;99.90
37240;DHT22;23130;48.760;9.178;2023-04-24T01:42:35;10.10;99.90
37240;DHT22;23130;48.760;9.178;2023-04-24T01:45:02;10.00;99.90
37240;DHT22;23130;48.760;9.178;2023-04-24T01:47:30;9.90;99.90
37240;DHT22;23130;48.760;9.178;2023-04-24T01:49:56;9.80;99.90
37240;DHT22;23130;48.760;9.178;2023-04-24T01:52:22;9.80;99.90
37240;DHT22;23130;48.760;9.178;2023-04-24T01:54:47;9.80;99.90
37240;DHT22;23130;48.760;9.178;2023-04-24T01:57:14;9.80;99.90
37240;DHT22;23130;48.760;9.178;2023-04-24T01:59:40;9.80;99.90
37240;DHT22;23130;48.760;9.178;2023-04-24T02:02:05;9.80;99.90
37240;DHT22;23130;48.760;9.178;2023-04-24T02:04:31;9.70;99.90
37240;DHT22;23130;48.760;9.178;2023-04-24T02:06:57;9.70;99.90
37240;DHT22;23130;48.760;9.178;2023-04-24T02:09:22;9.70;99.90
37240;DHT22;23130;48.760;9.178;2023-04-24T02:11:48;9.70;99.90
37240;DHT22;23130;48.760;9.178;2023-04-24T02:14:13;9.70;99.90
37240;DHT22;23130;48.760;9.178;2023-04-24T02:16:39;9.70;99.90
37240;DHT22;23130;48.760;9.178;2023-04-24T02:19:05;9.70;99.90
37240;DHT22;23130;48.760;9.178;2023-04-24T02:21:30;9.60;99.90
37240;DHT22;23130;48.760;9.178;2023-04-24T02:23:57;9.70;99.90
37240;DHT22;23130;48.760;9.178;2023-04-24T02:26:22;9.70;99.90
37240;DHT22;23130;48.760;9.178;2023-04-24T02:28:48;9.70;99.90
37240;DHT22;23130;48.760;9.178;2023-04-24T02:31:14;9.70;99.90
37240;DHT22;23130;48.760;9.178;2023-04-24T02:33:40;9.70;99.90
37240;DHT22;23130;48.760;9.178;2023-04-24T02:36:05;9.70;99.90
37240;DHT22;23130;48.760;9.178;2023-04-24T02:38:31;9.70;99.90
37240;DHT22;23130;48.760;9.178;2023-04-24T02:40:56;9.70;99.90
37240;DHT22;23130;48.760;9.178;2023-04-24T02:43:22;9.70;99.90
37240;DHT22;23130;48.760;9.178;2023-04-24T02:45:48;9.70;99.90
37240;DHT22;23130;48.760;9.178;2023-04-24T02:48:14;9.70;99.90
37240;DHT22;23130;48.760;9.178;2023-04-24T02:50:40;9.70;99.90
37240;DHT22;23130;48.760;9.178;2023-04-24T02:53:05;9.70;99.90
37240;DHT22;23130;48.760;9.178;2023-04-24T02:55:31;9.70;99.90
37240;DHT22;23130;48.760;9.178;2023-04-24T02:57:56;9.70;99.90
37240;DHT22;23130;48.760;9.178;2023-04-24T03:00:22;9.70;99.90
37240;DHT22;23130;48.760;9.178;2023-04-24T03:02:48;9.70;99.90
37240;DHT22;23130;48.760;9.178;2023-04-24T03:05:15;9.60;99.90
37240;DHT22;23130;48.760;9.178;2023-04-24T03:07:40;9.60;99.90
37240;DHT22;23130;48.760;9.178;2023-04-24T03:10:06;9.60;99.90
37240;DHT22;23130;48.760;9.178;2023-04-24T03:12:32;9.60;99.90
37240;DHT22;23130;48.760;9.178;2023-04-24T03:14:58;9.60;99.90
37240;DHT22;23130;48.760;9.178;2023-04-24T03:17:23;9.50;99.90
37240;DHT22;23130;48.760;9.178;2023-04-24T03:19:49;9.50;99.90
37240;DHT22;23130;48.760;9.178;2023-04-24T03:22:14;9.40;99.90
37240;DHT22;23130;48.760;9.178;2023-04-24T03:24:40;9.40;99.90
37240;DHT22;23130;48.760;9.178;2023-04-24T03:27:05;9.30;99.90
37240;DHT22;23130;48.760;9.178;2023-04-24T03:29:31;9.20;99.90
37240;DHT22;23130;48.760;9.178;2023-04-24T03:31:57;9.20;99.90
37240;DHT22;23130;48.760;9.178;2023-04-24T03:34:22;9.10;99.90
37240;DHT22;23130;48.760;9.178;2023-04-24T03:36:48;9.10;99.90
37240;DHT22;23130;48.760;9.178;2023-04-24T03:39:13;9.10;99.90
37240;DHT22;23130;48.760;9.178;2023-04-24T03:41:39;9.00;99.90
37240;DHT22;23130;48.760;9.178;2023-04-24T03:44:04;9.00;99.90
37240;DHT22;23130;48.760;9.178;2023-04-24T03:46:30;9.10;99.90
37240;DHT22;23130;48.760;9.178;2023-04-24T03:48:55;9.10;99.90
37240;DHT22;23130;48.760;9.178;2023-04-24T03:51:21;9.00;99.90
37240;DHT22;23130;48.760;9.178;2023-04-24T03:53:47;9.00;99.90
37240;DHT22;23130;48.760;9.178;2023-04-24T03:56:13;9.00;99.90
37240;DHT22;23130;48.760;9.178;2023-04-24T03:58:38;8.90;99.90
37240;DHT22;23130;48.760;9.178;2023-04-24T04:01:04;8.90;99.90
37240;DHT22;23130;48.760;9.178;2023-04-24T04:03:30;8.80;99.90
37240;DHT22;23130;48.760;9.178;2023-04-24T04:05:56;8.80;99.90
37240;DHT22;23130;48.760;9.178;2023-04-24T04:08:22;8.80;99.90
37240;DHT22;23130;48.760;9.178;2023-04-24T04:10:47;8.80;99.90
37240;DHT22;23130;48.760;9.178;2023-04-24T04:13:13;8.90;99.90
37240;DHT22;23130;48.760;9.178;2023-04-24T04:15:38;8.90;99.90
37240;DHT22;23130;48.760;9.178;2023-04-24T04:18:04;9.00;99.90
37240;DHT22;23130;48.760;9.178;2023-04-24T04:20:29;9.10;99.90
37240;DHT22;23130;48.760;9.178;2023-04-24T04:22:55;9.20;99.90
37240;DHT22;23130;48.760;9.178;2023-04-24T04:25:20;9.30;99.90
37240;DHT22;23130;48.760;9.178;2023-04-24T04:27:46;9.30;99.90
37240;DHT22;23130;48.760;9.178;2023-04-24T04:30:14;9.40;99.90
37240;DHT22;23130;48.760;9.178;2023-04-24T04:32:40;9.40;99.90
37240;DHT22;23130;48.760;9.178;2023-04-24T04:35:05;9.40;99.90
37240;DHT22;23130;48.760;9.178;2023-04-24T04:37:35;9.50;99.90
37240;DHT22;23130;48.760;9.178;2023-04-24T04:40:01;9.40;99.90
37240;DHT22;23130;48.760;9.178;2023-04-24T04:42:31;9.30;99.90
37240;DHT22;23130;48.760;9.178;2023-04-24T04:44:58;9.20;99.90
37240;DHT22;23130;48.760;9.178;2023-04-24T04:47:23;9.10;99.90
37240;DHT22;23130;48.760;9.178;2023-04-24T04:49:49;9.00;99.90
37240;DHT22;23130;48.760;9.178;2023-04-24T04:52:17;8.90;99.90
37240;DHT22;23130;48.760;9.178;2023-04-24T04:54:43;8.90;99.90
37240;DHT22;23130;48.760;9.178;2023-04-24T04:57:08;8.90;99.90
37240;DHT22;23130;48.760;9.178;2023-04-24T04:59:34;8.80;99.90
37240;DHT22;23130;48.760;9.178;2023-04-24T05:02:00;8.70;99.90
37240;DHT22;23130;48.760;9.178;2023-04-24T05:04:25;8.60;99.90
37240;DHT22;23130;48.760;9.178;2023-04-24T05:06:52;8.60;99.90
37240;DHT22;23130;48.760;9.178;2023-04-24T05:09:18;8.50;99.90
37240;DHT22;23130;48.760;9.178;2023-04-24T05:11:43;8.50;99.90
37240;DHT22;23130;48.760;9.178;2023-04-24T05:14:09;8.40;99.90
37240;DHT22;23130;48.760;9.178;2023-04-24T05:16:35;8.40;99.90
37240;DHT22;23130;48.760;9.178;2023-04-24T05:19:02;8.50;99.90
37240;DHT22;23130;48.760;9.178;2023-04-24T05:21:28;8.40;99.90
37240;DHT22;23130;48.760;9.178;2023-04-24T05:23:54;8.40;99.90
37240;DHT22;23130;48.760;9.178;2023-04-24T05:26:20;8.50;99.90
37240;DHT22;23130;48.760;9.178;2023-04-24T05:28:45;8.50;99.90
37240;DHT22;23130;48.760;9.178;2023-04-24T05:31:11;8.50;99.90
37240;DHT22;23130;48.760;9.178;2023-04-24T05:33:38;8.50;99.90
37240;DHT22;23130;48.760;9.178;2023-04-24T05:36:04;8.60;99.90
37240;DHT22;23130;48.760;9.178;2023-04-24T05:38:31;8.60;99.90
37240;DHT22;23130;48.760;9.178;2023-04-24T05:40:56;8.70;99.90
37240;DHT22;23130;48.760;9.178;2023-04-24T05:43:22;8.80;99.90
37240;DHT22;23130;48.760;9.178;2023-04-24T05:45:47;8.80;99.90
37240;DHT22;23130;48.760;9.178;2023-04-24T05:48:13;8.90;99.90
37240;DHT22;23130;48.760;9.178;2023-04-24T05:50:39;9.00;99.90
37240;DHT22;23130;48.760;9.178;2023-04-24T05:53:05;9.10;99.90
37240;DHT22;23130;48.760;9.178;2023-04-24T05:55:32;9.30;99.90
37240;DHT22;23130;48.760;9.178;2023-04-24T05:57:58;9.40;99.90
37240;DHT22;23130;48.760;9.178;2023-04-24T06:00:24;9.40;99.90
37240;DHT22;23130;48.760;9.178;2023-04-24T06:02:49;9.40;99.90
37240;DHT22;23130;48.760;9.178;2023-04-24T06:05:15;9.40;99.90
37240;DHT22;23130;48.760;9.178;2023-04-24T06:07:41;9.40;99.90
37240;DHT22;23130;48.760;9.178;2023-04-24T06:10:09;9.40;99.90
37240;DHT22;23130;48.760;9.178;2023-04-24T06:12:35;9.40;99.90
37240;DHT22;23130;48.760;9.178;2023-04-24T06:15:00;9.50;99.90
37240;DHT22;23130;48.760;9.178;2023-04-24T06:17:26;9.50;99.90
37240;DHT22;23130;48.760;9.178;2023-04-24T06:19:51;9.70;99.90
37240;DHT22;23130;48.760;9.178;2023-04-24T06:22:17;9.90;99.90
37240;DHT22;23130;48.760;9.178;2023-04-24T06:24:42;10.70;99.90
37240;DHT22;23130;48.760;9.178;2023-04-24T06:27:08;12.20;99.90
37240;DHT22;23130;48.760;9.178;2023-04-24T06:29:34;13.80;99.90
37240;DHT22;23130;48.760;9.178;2023-04-24T06:31:59;15.40;99.90
37240;DHT22;23130;48.760;9.178;2023-04-24T06:34:25;16.50;99.90
37240;DHT22;23130;48.760;9.178;2023-04-24T06:36:51;17.30;99.90
37240;DHT22;23130;48.760;9.178;2023-04-24T06:39:16;17.60;99.90
37240;DHT22;23130;48.760;9.178;2023-04-24T06:41:42;17.80;99.90
37240;DHT22;23130;48.760;9.178;2023-04-24T06:44:07;18.30;99.90
37240;DHT22;23130;48.760;9.178;2023-04-24T06:46:33;18.30;99.90
37240;DHT22;23130;48.760;9.178;2023-04-24T06:49:00;18.80;99.90
37240;DHT22;23130;48.760;9.178;2023-04-24T06:51:26;19.00;99.90
37240;DHT22;23130;48.760;9.178;2023-04-24T06:53:55;19.10;99.90
37240;DHT22;23130;48.760;9.178;2023-04-24T06:56:23;18.80;99.90
37240;DHT22;23130;48.760;9.178;2023-04-24T06:58:49;18.40;99.90
37240;DHT22;23130;48.760;9.178;2023-04-24T07:01:14;17.80;99.90
37240;DHT22;23130;48.760;9.178;2023-04-24T07:03:40;17.30;99.90
37240;DHT22;23130;48.760;9.178;2023-04-24T07:06:06;16.90;99.90
37240;DHT22;23130;48.760;9.178;2023-04-24T07:08:31;16.60;99.90
37240;DHT22;23130;48.760;9.178;2023-04-24T07:10:58;15.90;99.90
37240;DHT22;23130;48.760;9.178;2023-04-24T07:13:25;15.10;99.90
37240;DHT22;23130;48.760;9.178;2023-04-24T07:15:51;14.70;99.90
37240;DHT22;23130;48.760;9.178;2023-04-24T07:18:20;14.20;99.90
37240;DHT22;23130;48.760;9.178;2023-04-24T07:20:45;13.70;99.90
37240;DHT22;23130;48.760;9.178;2023-04-24T07:23:11;13.20;99.90
37240;DHT22;23130;48.760;9.178;2023-04-24T07:25:36;12.90;99.90
37240;DHT22;23130;48.760;9.178;2023-04-24T07:28:03;12.60;99.90
37240;DHT22;23130;48.760;9.178;2023-04-24T07:30:30;12.30;99.90
37240;DHT22;23130;48.760;9.178;2023-04-24T07:32:55;12.30;99.90
37240;DHT22;23130;48.760;9.178;2023-04-24T07:35:21;12.30;99.90
37240;DHT22;23130;48.760;9.178;2023-04-24T07:37:47;12.40;99.90
37240;DHT22;23130;48.760;9.178;2023-04-24T07:40:13;12.60;99.90
37240;DHT22;23130;48.760;9.178;2023-04-24T07:42:39;12.80;99.90
37240;DHT22;23130;48.760;9.178;2023-04-24T07:45:05;13.30;99.90
37240;DHT22;23130;48.760;9.178;2023-04-24T07:47:32;13.70;99.90
37240;DHT22;23130;48.760;9.178;2023-04-24T07:49:58;14.30;99.90
37240;DHT22;23130;48.760;9.178;2023-04-24T07:52:24;14.60;99.90
37240;DHT22;23130;48.760;9.178;2023-04-24T07:54:50;14.50;99.90
37240;DHT22;23130;48.760;9.178;2023-04-24T07:57:19;14.50;99.90
37240;DHT22;23130;48.760;9.178;2023-04-24T07:59:44;14.60;99.90
37240;DHT22;23130;48.760;9.178;2023-04-24T08:02:10;14.60;99.90
37240;DHT22;23130;48.760;9.178;2023-04-24T08:04:36;14.30;99.90
37240;DHT22;23130;48.760;9.178;2023-04-24T08:07:01;14.00;99.90
37240;DHT22;23130;48.760;9.178;2023-04-24T08:09:27;13.90;99.90
37240;DHT22;23130;48.760;9.178;2023-04-24T08:11:52;13.60;99.90
37240;DHT22;23130;48.760;9.178;2023-04-24T08:14:18;13.60;99.90
37240;DHT22;23130;48.760;9.178;2023-04-24T08:16:44;13.60;99.90
37240;DHT22;23130;48.760;9.178;2023-04-24T08:19:10;13.30;99.90
37240;DHT22;23130;48.760;9.178;2023-04-24T08:21:36;13.20;99.90
37240;DHT22;23130;48.760;9.178;2023-04-24T08:24:01;13.30;99.90
37240;DHT22;23130;48.760;9.178;2023-04-24T08:26:30;13.50;99.90
37240;DHT22;23130;48.760;9.178;2023-04-24T08:28:56;13.80;99.90
37240;DHT22;23130;48.760;9.178;2023-04-24T08:31:21;14.00;99.90
37240;DHT22;23130;48.760;9.178;2023-04-24T08:33:48;14.10;99.90
37240;DHT22;23130;48.760;9.178;2023-04-24T08:36:13;14.20;99.90
37240;DHT22;23130;48.760;9.178;2023-04-24T08:38:39;14.40;99.90
37240;DHT22;23130;48.760;9.178;2023-04-24T08:41:05;14.60;99.90
37240;DHT22;23130;48.760;9.178;2023-04-24T08:43:33;14.50;99.90
37240;DHT22;23130;48.760;9.178;2023-04-24T08:46:00;14.40;99.90
37240;DHT22;23130;48.760;9.178;2023-04-24T08:48:26;14.10;99.90
37240;DHT22;23130;48.760;9.178;2023-04-24T08:50:53;13.70;99.90
37240;DHT22;23130;48.760;9.178;2023-04-24T08:53:18;13.30;99.90
37240;DHT22;23130;48.760;9.178;2023-04-24T08:55:47;13.00;99.90
37240;DHT22;23130;48.760;9.178;2023-04-24T08:58:13;13.00;99.90
37240;DHT22;23130;48.760;9.178;2023-04-24T09:00:40;13.20;99.90
37240;DHT22;23130;48.760;9.178;2023-04-24T09:03:09;13.80;99.90
37240;DHT22;23130;48.760;9.178;2023-04-24T09:05:35;14.20;99.90
37240;DHT22;23130;48.760;9.178;2023-04-24T09:08:02;14.00;99.90
37240;DHT22;23130;48.760;9.178;2023-04-24T09:10:28;13.80;99.90
37240;DHT22;23130;48.760;9.178;2023-04-24T09:12:56;13.50;99.90
37240;DHT22;23130;48.760;9.178;2023-04-24T09:15:23;13.10;99.90
37240;DHT22;23130;48.760;9.178;2023-04-24T09:17:49;12.80;99.90
37240;DHT22;23130;48.760;9.178;2023-04-24T09:20:15;12.50;99.90
37240;DHT22;23130;48.760;9.178;2023-04-24T09:22:42;12.30;99.90
37240;DHT22;23130;48.760;9.178;2023-04-24T09:25:09;12.20;99.90
37240;DHT22;23130;48.760;9.178;2023-04-24T09:27:44;12.00;99.90
37240;DHT22;23130;48.760;9.178;2023-04-24T09:30:10;11.80;99.90
37240;DHT22;23130;48.760;9.178;2023-04-24T09:32:36;11.50;99.90
37240;DHT22;23130;48.760;9.178;2023-04-24T09:35:12;11.40;99.90
37240;DHT22;23130;48.760;9.178;2023-04-24T09:37:43;11.50;99.90
37240;DHT22;23130;48.760;9.178;2023-04-24T09:40:19;11.70;99.90
37240;DHT22;23130;48.760;9.178;2023-04-24T09:45:11;12.20;99.90
37240;DHT22;23130;48.760;9.178;2023-04-24T09:47:38;12.70;99.90
37240;DHT22;23130;48.760;9.178;2023-04-24T09:50:14;13.10;99.90
37240;DHT22;23130;48.760;9.178;2023-04-24T09:52:45;13.30;99.90
37240;DHT22;23130;48.760;9.178;2023-04-24T09:55:19;13.40;99.90
37240;DHT22;23130;48.760;9.178;2023-04-24T09:57:53;13.40;99.90
37240;DHT22;23130;48.760;9.178;2023-04-24T10:00:27;13.00;99.90
37240;DHT22;23130;48.760;9.178;2023-04-24T10:02:57;12.80;99.90
37240;DHT22;23130;48.760;9.178;2023-04-24T10:05:44;12.90;99.90
37240;DHT22;23130;48.760;9.178;2023-04-24T10:08:12;12.80;99.90
37240;DHT22;23130;48.760;9.178;2023-04-24T10:10:42;12.90;99.90
37240;DHT22;23130;48.760;9.178;2023-04-24T10:13:13;13.00;99.90
37240;DHT22;23130;48.760;9.178;2023-04-24T10:15:41;13.20;99.90
37240;DHT22;23130;48.760;9.178;2023-04-24T10:18:07;13.40;99.90
37240;DHT22;23130;48.760;9.178;2023-04-24T10:20:35;13.40;99.90
37240;DHT22;23130;48.760;9.178;2023-04-24T10:23:02;13.60;99.90
37240;DHT22;23130;48.760;9.178;2023-04-24T10:25:33;13.50;99.90
37240;DHT22;23130;48.760;9.178;2023-04-24T10:28:01;13.50;99.90
37240;DHT22;23130;48.760;9.178;2023-04-24T10:30:37;13.50;99.90
37240;DHT22;23130;48.760;9.178;2023-04-24T10:33:05;13.80;99.90
37240;DHT22;23130;48.760;9.178;2023-04-24T10:35:34;14.00;99.90
37240;DHT22;23130;48.760;9.178;2023-04-24T10:38:10;14.20;99.90
37240;DHT22;23130;48.760;9.178;2023-04-24T10:40:37;14.00;99.90
37240;DHT22;23130;48.760;9.178;2023-04-24T10:43:03;13.80;99.90
37240;DHT22;23130;48.760;9.178;2023-04-24T10:45:34;13.50;99.90
37240;DHT22;23130;48.760;9.178;2023-04-24T10:48:05;13.20;99.90
37240;DHT22;23130;48.760;9.178;2023-04-24T10:50:52;13.10;99.90
37240;DHT22;23130;48.760;9.178;2023-04-24T10:53:20;12.80;99.90
37240;DHT22;23130;48.760;9.178;2023-04-24T10:56:04;12.80;99.90
37240;DHT22;23130;48.760;9.178;2023-04-24T10:58:42;12.70;99.90
37240;DHT22;23130;48.760;9.178;2023-04-24T11:01:31;12.70;99.90
37240;DHT22;23130;48.760;9.178;2023-04-24T11:04:02;12.80;99.90
37240;DHT22;23130;48.760;9.178;2023-04-24T11:06:30;12.90;99.90
37240;DHT22;23130;48.760;9.178;2023-04-24T11:09:03;12.90;99.90
37240;DHT22;23130;48.760;9.178;2023-04-24T11:11:30;12.70;99.90
37240;DHT22;23130;48.760;9.178;2023-04-24T11:16:59;12.20;99.90
37240;DHT22;23130;48.760;9.178;2023-04-24T11:19:26;12.30;99.90
37240;DHT22;23130;48.760;9.178;2023-04-24T11:22:00;12.60;99.90
37240;DHT22;23130;48.760;9.178;2023-04-24T11:29:47;13.50;99.90
37240;DHT22;23130;48.760;9.178;2023-04-24T11:34:48;13.90;99.90
37240;DHT22;23130;48.760;9.178;2023-04-24T11:37:14;14.20;99.90
37240;DHT22;23130;48.760;9.178;2023-04-24T11:39:40;14.70;99.90
37240;DHT22;23130;48.760;9.178;2023-04-24T11:42:07;14.70;99.90
37240;DHT22;23130;48.760;9.178;2023-04-24T11:44:34;14.50;99.90
37240;DHT22;23130;48.760;9.178;2023-04-24T11:47:05;14.10;99.90
37240;DHT22;23130;48.760;9.178;2023-04-24T11:49:32;13.60;99.90
37240;DHT22;23130;48.760;9.178;2023-04-24T11:51:59;13.50;99.90
37240;DHT22;23130;48.760;9.178;2023-04-24T11:54:25;13.40;99.90
37240;DHT22;23130;48.760;9.178;2023-04-24T11:56:51;13.30;99.90
37240;DHT22;23130;48.760;9.178;2023-04-24T11:59:16;13.30;99.90
37240;DHT22;23130;48.760;9.178;2023-04-24T12:01:44;13.50;99.90
37240;DHT22;23130;48.760;9.178;2023-04-24T12:04:10;13.60;99.90
37240;DHT22;23130;48.760;9.178;2023-04-24T12:06:36;14.00;99.90
37240;DHT22;23130;48.760;9.178;2023-04-24T12:09:01;14.50;99.90
37240;DHT22;23130;48.760;9.178;2023-04-24T12:11:27;15.10;99.90
37240;DHT22;23130;48.760;9.178;2023-04-24T12:13:53;15.30;99.90
37240;DHT22;23130;48.760;9.178;2023-04-24T12:16:19;15.50;99.90
37240;DHT22;23130;48.760;9.178;2023-04-24T12:18:45;15.10;99.90
37240;DHT22;23130;48.760;9.178;2023-04-24T12:21:21;14.80;99.90
37240;DHT22;23130;48.760;9.178;2023-04-24T12:23:48;14.40;99.90
37240;DHT22;23130;48.760;9.178;2023-04-24T12:26:18;13.90;99.90
37240;DHT22;23130;48.760;9.178;2023-04-24T12:28:46;13.80;99.90
37240;DHT22;23130;48.760;9.178;2023-04-24T12:31:12;13.60;99.90
37240;DHT22;23130;48.760;9.178;2023-04-24T12:33:37;13.70;99.90
37240;DHT22;23130;48.760;9.178;2023-04-24T12:36:04;13.60;99.90
37240;DHT22;23130;48.760;9.178;2023-04-24T12:38:30;13.70;99.90
37240;DHT22;23130;48.760;9.178;2023-04-24T12:41:09;13.60;99.90
37240;DHT22;23130;48.760;9.178;2023-04-24T12:43:35;13.80;99.90
37240;DHT22;23130;48.760;9.178;2023-04-24T12:46:01;13.90;99.90
37240;DHT22;23130;48.760;9.178;2023-04-24T12:48:27;14.00;99.90
37240;DHT22;23130;48.760;9.178;2023-04-24T12:50:53;14.20;99.90
37240;DHT22;23130;48.760;9.178;2023-04-24T12:53:19;14.20;99.90
37240;DHT22;23130;48.760;9.178;2023-04-24T12:55:45;14.20;99.90
37240;DHT22;23130;48.760;9.178;2023-04-24T12:58:12;13.90;99.90
37240;DHT22;23130;48.760;9.178;2023-04-24T13:00:38;13.50;99.90
37240;DHT22;23130;48.760;9.178;2023-04-24T13:03:04;13.20;99.90
37240;DHT22;23130;48.760;9.178;2023-04-24T13:05:30;12.90;99.90
37240;DHT22;23130;48.760;9.178;2023-04-24T13:07:56;12.50;99.90
37240;DHT22;23130;48.760;9.178;2023-04-24T13:10:22;12.40;99.90
37240;DHT22;23130;48.760;9.178;2023-04-24T13:12:48;12.30;99.90
37240;DHT22;23130;48.760;9.178;2023-04-24T13:15:13;12.40;99.90
37240;DHT22;23130;48.760;9.178;2023-04-24T13:17:39;12.60;99.90
37240;DHT22;23130;48.760;9.178;2023-04-24T13:20:05;12.90;99.90
37240;DHT22;23130;48.760;9.178;2023-04-24T13:22:31;13.20;99.90
37240;DHT22;23130;48.760;9.178;2023-04-24T13:24:57;13.50;99.90
37240;DHT22;23130;48.760;9.178;2023-04-24T13:27:22;13.80;99.90
37240;DHT22;23130;48.760;9.178;2023-04-24T13:29:48;14.20;99.90
37240;DHT22;23130;48.760;9.178;2023-04-24T13:32:14;14.60;99.90
37240;DHT22;23130;48.760;9.178;2023-04-24T13:34:40;14.70;99.90
37240;DHT22;23130;48.760;9.178;2023-04-24T13:37:05;14.70;99.90
37240;DHT22;23130;48.760;9.178;2023-04-24T13:39:31;14.50;99.90
37240;DHT22;23130;48.760;9.178;2023-04-24T13:41:57;14.20;99.90
37240;DHT22;23130;48.760;9.178;2023-04-24T13:44:23;13.60;99.90
37240;DHT22;23130;48.760;9.178;2023-04-24T13:46:51;13.10;99.90
37240;DHT22;23130;48.760;9.178;2023-04-24T13:49:19;12.60;99.90
37240;DHT22;23130;48.760;9.178;2023-04-24T13:51:44;12.20;99.90
37240;DHT22;23130;48.760;9.178;2023-04-24T13:54:11;11.80;99.90
37240;DHT22;23130;48.760;9.178;2023-04-24T13:56:37;11.30;99.90
37240;DHT22;23130;48.760;9.178;2023-04-24T13:59:02;10.90;99.90
37240;DHT22;23130;48.760;9.178;2023-04-24T14:01:28;10.70;99.90
37240;DHT22;23130;48.760;9.178;2023-04-24T14:03:54;10.80;99.90
37240;DHT22;23130;48.760;9.178;2023-04-24T14:06:20;11.00;99.90
37240;DHT22;23130;48.760;9.178;2023-04-24T14:08:46;11.30;99.90
37240;DHT22;23130;48.760;9.178;2023-04-24T14:11:12;11.60;99.90
37240;DHT22;23130;48.760;9.178;2023-04-24T14:13:38;11.70;99.90
37240;DHT22;23130;48.760;9.178;2023-04-24T14:16:04;12.00;99.90
37240;DHT22;23130;48.760;9.178;2023-04-24T14:18:30;12.20;99.90
37240;DHT22;23130;48.760;9.178;2023-04-24T14:20:55;12.20;99.90
37240;DHT22;23130;48.760;9.178;2023-04-24T14:23:21;11.90;99.90
37240;DHT22;23130;48.760;9.178;2023-04-24T14:25:47;11.90;99.90
37240;DHT22;23130;48.760;9.178;2023-04-24T14:28:16;11.80;99.90
37240;DHT22;23130;48.760;9.178;2023-04-24T14:30:42;11.50;99.90
37240;DHT22;23130;48.760;9.178;2023-04-24T14:33:07;11.30;99.90
37240;DHT22;23130;48.760;9.178;2023-04-24T14:35:33;11.30;99.90
37240;DHT22;23130;48.760;9.178;2023-04-24T14:38:00;11.40;99.90
37240;DHT22;23130;48.760;9.178;2023-04-24T14:40:26;11.60;99.90
37240;DHT22;23130;48.760;9.178;2023-04-24T14:42:51;11.80;99.90
37240;DHT22;23130;48.760;9.178;2023-04-24T14:45:17;12.00;99.90
37240;DHT22;23130;48.760;9.178;2023-04-24T14:47:43;12.00;99.90
37240;DHT22;23130;48.760;9.178;2023-04-24T14:50:09;12.10;99.90
37240;DHT22;23130;48.760;9.178;2023-04-24T14:52:36;12.10;99.90
37240;DHT22;23130;48.760;9.178;2023-04-24T14:55:02;12.10;99.90
37240;DHT22;23130;48.760;9.178;2023-04-24T14:57:28;12.30;99.90
37240;DHT22;23130;48.760;9.178;2023-04-24T14:59:54;12.40;99.90
37240;DHT22;23130;48.760;9.178;2023-04-24T15:02:19;12.40;99.90
37240;DHT22;23130;48.760;9.178;2023-04-24T15:04:45;12.60;99.90
37240;DHT22;23130;48.760;9.178;2023-04-24T15:07:10;12.80;99.90
37240;DHT22;23130;48.760;9.178;2023-04-24T15:09:36;12.90;99.90
37240;DHT22;23130;48.760;9.178;2023-04-24T15:12:01;12.50;99.90
37240;DHT22;23130;48.760;9.178;2023-04-24T15:14:27;12.20;99.90
37240;DHT22;23130;48.760;9.178;2023-04-24T15:16:53;12.00;99.90
37240;DHT22;23130;48.760;9.178;2023-04-24T15:19:18;11.90;99.90
37240;DHT22;23130;48.760;9.178;2023-04-24T15:21:44;11.90;99.90
37240;DHT22;23130;48.760;9.178;2023-04-24T15:24:09;11.80;99.90
37240;DHT22;23130;48.760;9.178;2023-04-24T15:26:35;11.80;99.90
37240;DHT22;23130;48.760;9.178;2023-04-24T15:29:02;11.80;99.90
37240;DHT22;23130;48.760;9.178;2023-04-24T15:31:28;11.70;99.90
37240;DHT22;23130;48.760;9.178;2023-04-24T15:33:53;11.70;99.90
37240;DHT22;23130;48.760;9.178;2023-04-24T15:36:19;11.70;99.90
37240;DHT22;23130;48.760;9.178;2023-04-24T15:38:46;11.60;99.90
37240;DHT22;23130;48.760;9.178;2023-04-24T15:41:11;11.60;99.90
37240;DHT22;23130;48.760;9.178;2023-04-24T15:43:37;11.50;99.90